createdAt,value
2018-04-27T00:01:37.669Z,13.10
2018-04-27T00:04:05.955Z,14.10
2018-04-27T00:06:34.298Z,13.67
2018-04-27T00:09:02.397Z,13.70
2018-04-27T00:11:30.544Z,14.03
2018-04-27T00:13:58.647Z,14.47
2018-04-27T00:16:27.004Z,14.00
2018-04-27T00:18:54.886Z,12.60
2018-04-27T00:21:22.975Z,14.17
2018-04-27T00:23:52.052Z,13.90
2018-04-27T00:26:20.021Z,13.60
2018-04-27T00:28:48.095Z,12.80
2018-04-27T00:31:16.159Z,12.83
2018-04-27T00:33:44.430Z,13.37
2018-04-27T00:36:12.408Z,14.47
2018-04-27T00:38:40.768Z,13.80
2018-04-27T00:41:08.656Z,13.40
2018-04-27T00:43:37.016Z,13.03
2018-04-27T00:46:06.233Z,12.97
2018-04-27T00:48:35.336Z,13.90
2018-04-27T00:51:04.213Z,11.77
2018-04-27T00:53:32.490Z,13.10
2018-04-27T00:56:00.740Z,12.70
2018-04-27T00:58:29.116Z,12.80
2018-04-27T01:00:57.119Z,11.87
2018-04-27T01:03:25.803Z,13.33
2018-04-27T01:05:53.762Z,13.60
2018-04-27T01:08:23.783Z,12.63
2018-04-27T01:10:51.646Z,12.60
2018-04-27T01:13:19.833Z,13.20
2018-04-27T01:15:49.699Z,13.53
2018-04-27T01:18:18.205Z,13.17
2018-04-27T01:20:46.181Z,12.73
2018-04-27T01:23:14.464Z,14.00
2018-04-27T01:25:42.605Z,12.90
2018-04-27T01:28:10.493Z,12.93
2018-04-27T01:30:38.544Z,12.97
2018-04-27T01:33:06.460Z,13.67
2018-04-27T01:35:35.288Z,13.87
2018-04-27T01:38:03.189Z,14.10
2018-04-27T01:40:36.280Z,13.80
2018-04-27T01:43:05.071Z,13.03
2018-04-27T01:45:33.542Z,12.87
2018-04-27T01:48:01.521Z,13.77
2018-04-27T01:50:29.572Z,12.80
2018-04-27T01:52:57.785Z,13.00
2018-04-27T01:55:26.249Z,14.17
2018-04-27T01:57:54.417Z,13.23
2018-04-27T02:00:22.586Z,13.73
2018-04-27T02:02:50.555Z,12.70
2018-04-27T02:05:19.550Z,13.53
2018-04-27T02:07:48.430Z,12.43
2018-04-27T02:10:16.695Z,13.70
2018-04-27T02:12:44.752Z,13.40
2018-04-27T02:15:13.482Z,13.77
2018-04-27T02:17:41.543Z,13.40
2018-04-27T02:20:09.610Z,12.80
2018-04-27T02:22:37.681Z,13.93
2018-04-27T02:25:05.753Z,13.57
2018-04-27T02:27:33.732Z,13.00
2018-04-27T02:30:03.738Z,12.60
2018-04-27T02:32:32.191Z,13.90
2018-04-27T02:35:00.481Z,12.47
2018-04-27T02:37:28.432Z,12.73
2018-04-27T02:39:56.541Z,12.53
2018-04-27T02:42:25.805Z,13.60
2018-04-27T02:44:53.976Z,12.90
2018-04-27T02:47:22.090Z,14.40
2018-04-27T02:49:50.362Z,13.37
2018-04-27T02:52:18.386Z,14.07
2018-04-27T02:54:46.473Z,15.20
2018-04-27T02:57:14.361Z,14.23
2018-04-27T02:59:42.334Z,14.70
2018-04-27T03:02:10.193Z,14.47
2018-04-27T03:04:39.046Z,14.43
2018-04-27T03:07:07.332Z,13.60
2018-04-27T03:09:35.841Z,14.27
2018-04-27T03:12:04.115Z,13.87
2018-04-27T03:14:32.091Z,14.87
2018-04-27T03:17:00.256Z,14.73
2018-04-27T03:19:28.533Z,13.83
2018-04-27T03:21:56.806Z,13.47
2018-04-27T03:24:24.980Z,13.80
2018-04-27T03:26:53.366Z,13.30
2018-04-27T03:29:22.056Z,13.40
2018-04-27T03:31:50.329Z,13.93
2018-04-27T03:34:18.295Z,13.50
2018-04-27T03:36:46.982Z,12.93
2018-04-27T03:39:15.163Z,13.53
2018-04-27T03:41:43.636Z,14.80
2018-04-27T03:44:11.864Z,13.30
2018-04-27T03:46:40.564Z,13.97
2018-04-27T03:49:08.680Z,15.60
2018-04-27T03:51:37.660Z,15.37
2018-04-27T03:54:07.476Z,14.30
2018-04-27T03:56:35.506Z,15.67
2018-04-27T03:59:03.617Z,14.80
2018-04-27T04:01:43.871Z,15.40
2018-04-27T04:04:23.821Z,15.70
2018-04-27T04:06:52.916Z,14.23
2018-04-27T04:09:21.626Z,15.37
2018-04-27T04:11:50.286Z,16.97
2018-04-27T04:14:18.667Z,14.53
2018-04-27T04:16:46.741Z,14.43
2018-04-27T04:19:15.015Z,14.80
2018-04-27T04:21:43.284Z,14.50
2018-04-27T04:24:12.289Z,15.30
2018-04-27T04:26:40.347Z,15.63
2018-04-27T04:29:08.418Z,16.83
2018-04-27T04:31:36.385Z,15.57
2018-04-27T04:34:06.076Z,16.00
2018-04-27T04:36:34.061Z,16.07
2018-04-27T04:39:03.157Z,16.90
2018-04-27T04:41:31.231Z,15.10
2018-04-27T04:43:59.284Z,16.40
2018-04-27T04:46:27.622Z,15.40
2018-04-27T04:48:56.158Z,14.17
2018-04-27T04:51:24.124Z,15.97
2018-04-27T04:53:52.278Z,15.10
2018-04-27T04:56:20.380Z,16.00
2018-04-27T04:58:49.477Z,15.53
2018-04-27T05:01:17.659Z,17.03
2018-04-27T05:03:47.043Z,15.43
2018-04-27T05:06:15.429Z,16.30
2018-04-27T05:08:43.392Z,15.67
2018-04-27T05:11:12.071Z,15.53
2018-04-27T05:13:40.248Z,17.30
2018-04-27T05:16:08.422Z,16.67
2018-04-27T05:21:39.895Z,17.07
2018-04-27T05:24:08.170Z,16.90
2018-04-27T05:26:36.345Z,18.00
2018-04-27T05:29:04.852Z,19.03
2018-04-27T05:31:33.717Z,16.97
2018-04-27T05:34:01.783Z,19.10
2018-04-27T05:36:29.955Z,18.00
2018-04-27T05:38:58.019Z,18.07
2018-04-27T05:41:26.203Z,18.83
2018-04-27T05:43:54.445Z,16.33
2018-04-27T05:46:22.803Z,17.27
2018-04-27T05:48:51.309Z,17.10
2018-04-27T05:51:19.608Z,17.37
2018-04-27T05:53:47.676Z,17.80
2018-04-27T05:56:16.062Z,17.97
2018-04-27T05:58:45.728Z,16.73
2018-04-27T06:01:13.935Z,17.10
2018-04-27T06:03:53.790Z,17.33
2018-04-27T06:06:21.974Z,17.80
2018-04-27T06:08:50.657Z,18.10
2018-04-27T06:11:19.313Z,17.50
2018-04-27T06:13:47.304Z,18.50
2018-04-27T06:16:17.114Z,18.80
2018-04-27T06:18:45.487Z,18.20
2018-04-27T06:21:15.119Z,18.87
2018-04-27T06:23:44.413Z,18.27
2018-04-27T06:26:13.860Z,17.70
2018-04-27T06:28:51.016Z,19.23
2018-04-27T06:31:19.434Z,18.40
2018-04-27T06:33:47.733Z,18.20
2018-04-27T06:36:15.892Z,16.27
2018-04-27T06:38:43.984Z,17.00
2018-04-27T06:41:12.154Z,17.23
2018-04-27T06:43:40.430Z,16.60
2018-04-27T06:46:08.602Z,17.63
2018-04-27T06:48:36.483Z,16.90
2018-04-27T06:51:05.645Z,16.00
2018-04-27T06:53:33.951Z,17.70
2018-04-27T06:56:02.119Z,17.13
2018-04-27T06:58:30.389Z,15.87
2018-04-27T07:00:59.484Z,16.23
2018-04-27T07:03:28.586Z,15.80
2018-04-27T07:05:57.038Z,15.73
2018-04-27T07:08:25.355Z,17.20
2018-04-27T07:10:54.123Z,17.50
2018-04-27T07:13:22.815Z,16.97
2018-04-27T07:15:50.990Z,16.17
2018-04-27T07:18:19.271Z,16.33
2018-04-27T07:20:52.961Z,16.33
2018-04-27T07:23:21.231Z,16.73
2018-04-27T07:25:49.488Z,16.73
2018-04-27T07:28:20.779Z,15.60
2018-04-27T07:30:50.389Z,15.67
2018-04-27T07:33:19.999Z,15.80
2018-04-27T07:35:50.827Z,16.33
2018-04-27T07:38:20.010Z,17.50
2018-04-27T07:40:49.212Z,15.83
2018-04-27T07:43:17.283Z,15.80
2018-04-27T07:45:45.542Z,16.47
2018-04-27T07:48:14.771Z,17.23
2018-04-27T07:50:44.003Z,17.20
2018-04-27T07:53:12.283Z,16.63
2018-04-27T07:55:40.785Z,15.83
2018-04-27T07:58:09.084Z,18.73
2018-04-27T08:00:37.463Z,16.30
2018-04-27T08:03:10.323Z,18.47
2018-04-27T08:05:39.043Z,17.50
2018-04-27T08:08:07.203Z,17.80
2018-04-27T08:10:35.943Z,16.00
2018-04-27T08:13:04.563Z,15.97
2018-04-27T08:15:32.864Z,16.47
2018-04-27T08:18:01.743Z,16.60
2018-04-27T08:20:31.143Z,17.00
2018-04-27T08:23:00.590Z,16.60
2018-04-27T08:25:30.762Z,15.00
2018-04-27T08:27:58.943Z,15.63
2018-04-27T08:30:27.202Z,16.17
2018-04-27T08:32:55.534Z,15.37
2018-04-27T08:35:24.102Z,18.00
2018-04-27T08:56:54.843Z,14.63
2018-04-27T08:59:25.263Z,15.10
2018-04-27T09:01:53.625Z,14.43
2018-04-27T09:04:22.025Z,15.90
2018-04-27T09:06:51.104Z,16.30
2018-04-27T09:09:19.266Z,15.53
2018-04-27T09:11:47.365Z,15.30
2018-04-27T09:20:52.745Z,14.60
2018-04-27T09:26:31.366Z,15.13
2018-04-27T09:28:59.899Z,14.23
2018-04-27T09:31:30.545Z,15.43
2018-04-27T09:36:49.867Z,14.63
2018-04-27T09:52:11.685Z,14.27
2018-04-27T09:54:46.494Z,13.20
2018-04-27T09:57:15.025Z,11.77
2018-04-27T09:59:43.886Z,11.50
2018-04-27T10:05:12.083Z,13.27
2018-04-27T10:07:41.225Z,12.70
2018-04-27T10:10:13.320Z,13.27
2018-04-27T10:12:54.519Z,12.90
2018-04-27T10:15:23.923Z,13.00
2018-04-27T10:17:52.264Z,13.80
2018-04-27T10:20:20.784Z,13.90
2018-04-27T10:22:49.067Z,14.10
2018-04-27T10:25:18.369Z,13.47
2018-04-27T10:27:48.024Z,13.37
2018-04-27T10:30:16.645Z,13.20
2018-04-27T10:32:44.967Z,12.93
2018-04-27T10:35:13.304Z,13.90
2018-04-27T10:37:41.644Z,14.87
2018-04-27T10:40:15.749Z,15.00
2018-04-27T10:42:52.373Z,13.23
2018-04-27T10:45:22.383Z,12.70
2018-04-27T10:47:51.443Z,12.90
2018-04-27T10:50:20.217Z,12.17
2018-04-27T10:53:01.022Z,12.10
2018-04-27T10:55:30.163Z,13.60
2018-04-27T10:57:58.403Z,11.70
2018-04-27T11:00:26.991Z,12.43
2018-04-27T11:02:55.156Z,13.27
2018-04-27T11:05:23.444Z,12.83
2018-04-27T11:07:51.784Z,14.47
2018-04-27T11:10:20.025Z,12.87
2018-04-27T11:12:49.585Z,13.10
2018-04-27T11:15:17.925Z,11.70
2018-04-27T11:17:46.045Z,14.73
2018-04-27T11:20:14.767Z,14.50
2018-04-27T11:22:43.097Z,14.23
2018-04-27T11:25:11.285Z,13.80
2018-04-27T11:27:39.566Z,12.13
2018-04-27T11:30:07.826Z,12.40
2018-04-27T11:32:36.205Z,12.40
2018-04-27T11:35:05.277Z,12.00
2018-04-27T11:37:34.542Z,12.17
2018-04-27T11:40:03.190Z,14.07
2018-04-27T11:42:31.274Z,12.03
2018-04-27T11:45:00.650Z,11.00
2018-04-27T11:47:30.178Z,11.10
2018-04-27T11:49:58.556Z,13.00
2018-04-27T11:52:27.086Z,13.47
2018-04-27T11:54:55.314Z,11.13
2018-04-27T11:57:23.688Z,11.27
2018-04-27T11:59:53.097Z,12.20
2018-04-27T12:02:22.187Z,12.77
2018-04-27T12:04:51.537Z,13.03
2018-04-27T12:07:20.138Z,13.17
2018-04-27T12:09:48.787Z,12.37
2018-04-27T12:12:16.928Z,13.70
2018-04-27T12:14:45.620Z,13.50
2018-04-27T12:17:15.332Z,12.50
2018-04-27T12:19:44.213Z,12.00
2018-04-27T12:22:12.349Z,12.87
2018-04-27T12:24:41.201Z,12.80
2018-04-27T12:27:09.939Z,13.20
2018-04-27T12:29:39.477Z,13.50
2018-04-27T12:32:08.246Z,13.50
2018-04-27T12:34:36.727Z,12.17
2018-04-27T12:37:05.348Z,12.87
2018-04-27T12:39:33.569Z,12.30
2018-04-27T12:42:02.264Z,13.80
2018-04-27T12:44:30.237Z,12.77
2018-04-27T12:46:58.650Z,13.10
2018-04-27T12:49:27.720Z,12.53
2018-04-27T12:51:55.989Z,12.40
2018-04-27T12:54:25.429Z,11.57
2018-04-27T12:56:53.769Z,12.30
2018-04-27T12:59:21.941Z,12.17
2018-04-27T13:01:50.431Z,13.03
2018-04-27T13:04:18.739Z,11.50
2018-04-27T13:06:47.073Z,12.40
2018-04-27T13:09:15.148Z,13.10
2018-04-27T13:11:43.410Z,12.37
2018-04-27T13:14:12.036Z,13.23
2018-04-27T13:16:41.305Z,11.83
2018-04-27T13:19:09.898Z,13.43
2018-04-27T13:21:38.368Z,13.27
2018-04-27T13:24:06.865Z,12.90
2018-04-27T13:26:36.079Z,12.50
2018-04-27T13:29:04.790Z,13.40
2018-04-27T13:31:33.263Z,14.00
2018-04-27T13:34:01.577Z,12.57
2018-04-27T13:36:29.765Z,13.83
2018-04-27T13:38:57.937Z,13.87
2018-04-27T13:41:26.593Z,14.03
2018-04-27T13:43:54.764Z,14.77
2018-04-27T13:46:23.087Z,12.80
2018-04-27T13:48:51.684Z,13.17
2018-04-27T13:51:21.161Z,13.37
2018-04-27T13:53:49.878Z,13.67
2018-04-27T13:56:19.352Z,12.67
2018-04-27T13:58:47.936Z,12.80
2018-04-27T14:01:16.343Z,12.70
2018-04-27T14:03:45.415Z,13.90
2018-04-27T14:06:13.885Z,13.73
2018-04-27T14:08:43.704Z,12.20
2018-04-27T14:11:11.966Z,12.33
2018-04-27T14:13:40.162Z,11.73
2018-04-27T14:16:08.704Z,12.50
2018-04-27T14:18:36.806Z,13.13
2018-04-27T14:21:04.984Z,12.90
2018-04-27T14:23:34.219Z,12.60
2018-04-27T14:26:02.851Z,13.50
2018-04-27T14:28:31.893Z,13.50
2018-04-27T14:31:00.540Z,12.97
2018-04-27T14:33:28.789Z,13.60
2018-04-27T14:35:57.520Z,13.20
2018-04-27T14:38:26.849Z,13.27
2018-04-27T14:40:55.254Z,12.80
2018-04-27T14:43:23.762Z,13.23
2018-04-27T14:45:52.267Z,13.30
2018-04-27T14:48:21.983Z,13.20
2018-04-27T14:50:51.248Z,14.00
2018-04-27T14:53:20.726Z,14.27
2018-04-27T14:55:49.261Z,13.00
2018-04-27T14:58:21.486Z,13.00
2018-04-27T15:00:49.784Z,12.73
2018-04-27T15:03:18.056Z,12.50
2018-04-27T15:05:46.345Z,12.90
2018-04-27T15:08:14.615Z,15.20
2018-04-27T15:10:42.892Z,14.00
2018-04-27T15:13:11.446Z,13.10
2018-04-27T15:15:39.643Z,13.80
2018-04-27T15:18:09.406Z,13.77
2018-04-27T15:20:37.985Z,12.63
2018-04-27T15:23:06.423Z,12.10
2018-04-27T15:28:02.763Z,12.50
2018-04-27T15:30:31.032Z,11.17
2018-04-27T15:32:59.364Z,12.13
2018-04-27T15:35:28.219Z,12.47
2018-04-27T15:37:57.368Z,12.67
2018-04-27T15:40:25.989Z,13.00
2018-04-27T15:42:54.863Z,12.67
2018-04-27T15:45:23.347Z,12.77
2018-04-27T15:47:51.835Z,13.90
2018-04-27T15:50:20.569Z,13.93
2018-04-27T15:52:49.181Z,12.40
2018-04-27T15:55:18.306Z,13.20
2018-04-27T15:57:46.605Z,12.50
2018-04-27T16:00:15.860Z,12.43
2018-04-27T16:02:44.331Z,12.93
2018-04-27T16:05:20.064Z,11.90
2018-04-27T16:07:50.106Z,13.20
2018-04-27T16:10:18.399Z,12.87
2018-04-27T16:12:46.676Z,11.53
2018-04-27T16:15:21.828Z,12.10
2018-04-27T16:17:50.809Z,10.83
2018-04-27T16:20:20.073Z,11.43
2018-04-27T16:22:48.904Z,11.60
2018-04-27T16:25:17.135Z,12.03
2018-04-27T16:27:45.677Z,10.57
2018-04-27T16:30:14.789Z,12.63
2018-04-27T16:32:43.305Z,11.20
2018-04-27T16:35:11.981Z,11.30
2018-04-27T16:37:40.903Z,13.60
2018-04-27T16:40:10.005Z,11.57
2018-04-27T16:42:38.284Z,12.50
2018-04-27T16:45:06.557Z,11.80
2018-04-27T16:47:35.280Z,12.00
2018-04-27T16:50:04.414Z,10.77
2018-04-27T16:52:32.943Z,12.10
2018-04-27T16:55:02.986Z,11.80
2018-04-27T16:57:41.941Z,11.90
2018-04-27T17:03:21.649Z,12.10
2018-04-27T17:06:13.737Z,12.17
2018-04-27T17:14:37.785Z,12.10
2018-04-27T17:17:07.935Z,11.23
2018-04-27T17:19:49.203Z,12.10
2018-04-27T17:22:28.425Z,11.20
2018-04-27T17:25:18.478Z,11.67
2018-04-27T17:27:49.842Z,10.87
2018-04-27T17:30:18.948Z,11.30
2018-04-27T17:32:48.964Z,11.97
2018-04-27T17:35:18.312Z,11.83
2018-04-27T17:37:46.521Z,13.20
2018-04-27T17:40:17.229Z,13.00
2018-04-27T17:42:45.643Z,12.17
2018-04-27T17:45:14.296Z,12.23
2018-04-27T17:47:42.892Z,11.07
2018-04-27T17:50:11.067Z,12.30
2018-04-27T17:52:39.115Z,11.47
2018-04-27T17:55:07.845Z,17.20
2018-04-27T17:57:37.157Z,15.80
2018-04-27T18:00:06.230Z,11.50
2018-04-27T18:02:34.294Z,16.53
2018-04-27T18:05:02.869Z,33.90
2018-04-27T18:07:31.492Z,21.10
2018-04-27T18:10:00.372Z,21.30
2018-04-27T18:12:29.538Z,19.97
2018-04-27T18:14:58.007Z,17.93
2018-04-27T18:17:26.533Z,19.60
2018-04-27T18:19:56.152Z,28.23
2018-04-27T18:22:24.900Z,16.10
2018-04-27T18:24:53.358Z,14.93
2018-04-27T18:27:21.658Z,18.97
2018-04-27T18:29:50.478Z,15.43
2018-04-27T18:32:20.361Z,19.73
2018-04-27T18:34:49.273Z,19.47
2018-04-27T18:37:18.443Z,22.60
2018-04-27T18:39:46.703Z,21.03
2018-04-27T18:42:15.024Z,17.63
2018-04-27T18:44:44.680Z,20.77
2018-04-27T18:47:13.217Z,18.30
2018-04-27T18:49:42.906Z,22.93
2018-04-27T18:52:11.073Z,22.90
2018-04-27T18:54:39.665Z,19.27
2018-04-27T18:57:07.904Z,19.63
2018-04-27T18:59:36.417Z,21.40
2018-04-27T19:02:04.901Z,19.00
2018-04-27T19:04:33.368Z,15.97
2018-04-27T19:07:01.771Z,19.37
2018-04-27T19:09:31.364Z,49.00
2018-04-27T19:11:59.500Z,32.30
2018-04-27T19:14:27.898Z,21.77
2018-04-27T19:16:56.370Z,15.87
2018-04-27T19:19:25.096Z,17.83
2018-04-27T19:21:54.679Z,25.57
2018-04-27T19:24:23.285Z,18.37
2018-04-27T19:26:52.065Z,17.07
2018-04-27T19:29:21.083Z,16.50
2018-04-27T19:31:49.521Z,18.33
2018-04-27T19:34:17.804Z,26.90
2018-04-27T19:36:46.298Z,26.00
2018-04-27T19:39:15.700Z,21.07
2018-04-27T19:41:44.875Z,21.33
2018-04-27T19:44:13.073Z,21.03
2018-04-27T19:46:42.574Z,27.97
2018-04-27T19:49:11.963Z,28.77
2018-04-27T19:51:40.135Z,19.10
2018-04-27T19:54:09.315Z,15.60
2018-04-27T19:56:38.018Z,22.13
2018-04-27T19:59:06.635Z,15.00
2018-04-27T20:01:34.896Z,15.20
2018-04-27T20:04:04.065Z,15.00
2018-04-27T20:06:32.854Z,17.07
2018-04-27T20:09:01.341Z,15.80
2018-04-27T20:11:30.022Z,21.03
2018-04-27T20:13:58.546Z,16.50
2018-04-27T20:16:37.634Z,20.10
2018-04-27T20:19:10.183Z,14.97
2018-04-27T20:21:38.541Z,14.67
2018-04-27T20:26:42.601Z,22.80
2018-04-27T20:29:10.920Z,19.83
2018-04-27T20:31:40.092Z,18.33
2018-04-27T20:34:09.815Z,36.17
2018-04-27T20:36:40.662Z,29.83
2018-04-27T20:39:10.039Z,24.67
2018-04-27T20:41:38.419Z,21.97
2018-04-27T20:44:06.699Z,59.60
2018-04-27T20:46:37.280Z,32.73
2018-04-27T20:49:05.819Z,24.10
2018-04-27T20:51:35.184Z,20.27
2018-04-27T20:54:04.070Z,22.20
2018-04-27T20:56:44.477Z,22.10
2018-04-27T20:59:14.437Z,27.60
2018-04-27T21:01:44.005Z,46.07
2018-04-27T21:04:13.573Z,18.83
2018-04-27T21:06:42.497Z,20.13
2018-04-27T21:09:14.233Z,15.70
2018-04-27T21:11:43.634Z,14.40
2018-04-27T21:14:13.906Z,14.10
2018-04-27T21:16:42.211Z,15.43
2018-04-27T21:19:10.621Z,14.97
2018-04-27T21:21:43.537Z,15.33
2018-04-27T21:24:11.858Z,17.67
2018-04-27T21:26:47.822Z,17.03
2018-04-27T21:29:19.681Z,15.90
2018-04-27T21:31:48.086Z,16.30
2018-04-27T21:34:17.860Z,15.27
2018-04-27T21:36:51.366Z,18.23
2018-04-27T21:39:35.828Z,16.90
2018-04-27T21:42:13.538Z,31.90
2018-04-27T21:44:42.974Z,17.63
2018-04-27T21:47:44.597Z,15.87
2018-04-27T21:50:13.894Z,14.83
2018-04-27T21:52:47.333Z,15.93
2018-04-27T21:55:15.819Z,15.50
2018-04-27T21:58:02.144Z,16.73
2018-04-27T22:00:31.778Z,17.20
2018-04-27T22:03:02.694Z,15.47
2018-04-27T22:09:01.100Z,14.93
2018-04-27T22:11:39.793Z,16.27
2018-04-27T22:14:09.862Z,15.53
2018-04-27T22:16:41.255Z,18.10
2018-04-27T22:19:09.900Z,22.27
2018-04-27T22:21:39.798Z,16.47
2018-04-27T22:24:11.783Z,19.87
2018-04-27T22:26:45.761Z,16.33
2018-04-27T22:29:24.181Z,23.80
2018-04-27T22:32:09.862Z,29.73
2018-04-27T22:34:45.718Z,25.20
2018-04-27T22:37:13.973Z,30.40
2018-04-27T22:39:53.618Z,22.57
2018-04-27T22:42:23.837Z,31.40
2018-04-27T22:44:56.329Z,23.03
2018-04-27T22:47:29.317Z,21.70
2018-04-27T22:49:58.091Z,17.07
2018-04-27T22:52:26.252Z,23.13
2018-04-27T22:54:55.654Z,24.73
2018-04-27T22:57:25.689Z,17.17
2018-04-27T23:00:00.350Z,19.40
2018-04-27T23:02:29.472Z,17.50
2018-04-27T23:05:14.583Z,17.60
2018-04-27T23:07:50.050Z,18.80
2018-04-27T23:10:20.860Z,17.13
2018-04-27T23:13:03.140Z,19.33
2018-04-27T23:15:43.518Z,16.97
2018-04-27T23:18:17.246Z,17.43
2018-04-27T23:20:47.759Z,18.20
2018-04-27T23:23:16.120Z,19.40
2018-04-27T23:25:47.270Z,21.77
2018-04-27T23:28:16.877Z,17.47
2018-04-27T23:30:45.460Z,18.80
2018-04-27T23:33:15.169Z,19.57
2018-04-27T23:35:53.385Z,16.20
2018-04-27T23:38:21.569Z,17.30
2018-04-27T23:40:51.581Z,16.80
2018-04-27T23:43:21.041Z,18.80
2018-04-27T23:45:49.450Z,17.33
2018-04-27T23:48:17.705Z,15.53
2018-04-27T23:51:02.798Z,16.73
2018-04-27T23:53:34.953Z,17.77
2018-04-27T23:56:03.409Z,16.40
2018-04-27T23:58:32.837Z,16.97
